Time;durP1;ratioP1;P1;durP2;ratioP2;P2;SDS_P1;SDS_P2;PMS_P1;PMS_P2;Temp;Humidity;BMP_temperature;BMP_pressure;BME280_temperature;BME280_humidity;BME280_pressure;Samples;Min_cycle;Max_cycle;Signal;HPM_P1;HPM_P2
2023/08/04 00:01:03;;;;;;;8.13;4.43;;;;;;;20.57;77.58;98557.66;4345784;33;33849;-86
2023/08/04 00:03:34;;;;;;;8.90;4.05;;;;;;;20.53;77.24;98548.13;4320809;33;32759;-87
2023/08/04 00:06:09;;;;;;;8.75;4.22;;;;;;;20.80;75.53;98541.84;4332476;33;33877;-87
2023/08/04 00:08:37;;;;;;;6.78;4.32;;;;;;;20.54;76.79;98531.44;4318112;33;34595;-87
2023/08/04 00:11:05;;;;;;;6.70;4.60;;;;;;;20.55;76.64;98577.94;4331119;33;34112;-86
2023/08/04 00:13:32;;;;;;;8.77;4.32;;;;;;;19.61;81.26;98649.50;4343114;33;34012;-85
2023/08/04 00:16:10;;;;;;;6.93;3.70;;;;;;;20.00;78.83;98688.63;4319184;33;33703;-86
2023/08/04 00:18:38;;;;;;;7.53;3.42;;;;;;;19.58;78.87;98688.19;4335004;33;33991;-86
2023/08/04 00:21:06;;;;;;;7.78;3.40;;;;;;;19.24;79.71;98680.47;4344656;33;33842;-92
2023/08/04 00:23:33;;;;;;;8.85;3.47;;;;;;;19.24;80.16;98704.97;4335871;33;33585;-88
2023/08/04 00:26:01;;;;;;;8.55;3.37;;;;;;;19.38;78.49;98736.97;4316570;33;33876;-87
2023/08/04 00:28:29;;;;;;;11.70;3.75;;;;;;;19.42;78.32;98696.53;4316400;33;34886;-86
2023/08/04 00:30:56;;;;;;;10.20;3.65;;;;;;;19.22;78.70;98641.09;4316558;33;33838;-90
2023/08/04 00:33:24;;;;;;;5.43;2.75;;;;;;;19.36;78.49;98659.94;4319703;33;33195;-88
2023/08/04 00:35:51;;;;;;;7.87;2.90;;;;;;;19.14;78.24;98662.38;4330776;33;34731;-86
2023/08/04 00:38:19;;;;;;;10.18;2.65;;;;;;;18.89;80.58;98633.31;4332595;33;33792;-89
2023/08/04 00:40:46;;;;;;;6.45;3.17;;;;;;;19.01;78.69;98631.22;4331532;33;33630;-85
2023/08/04 00:43:14;;;;;;;9.90;3.33;;;;;;;19.13;78.78;98630.84;4330236;33;34495;-87
2023/08/04 00:45:42;;;;;;;7.87;3.08;;;;;;;19.03;79.20;98647.81;4331108;33;33923;-90
2023/08/04 00:48:10;;;;;;;5.68;2.70;;;;;;;19.12;79.34;98644.91;4317943;33;34279;-85
2023/08/04 00:50:37;;;;;;;7.97;3.60;;;;;;;18.94;79.19;98623.56;4330876;33;33610;-85
2023/08/04 00:53:07;;;;;;;8.55;3.20;;;;;;;18.93;79.57;98613.94;4316051;33;33452;-86
2023/08/04 00:55:35;;;;;;;6.80;3.08;;;;;;;18.96;79.64;98613.84;4313380;33;33547;-87
2023/08/04 00:58:03;;;;;;;8.23;3.42;;;;;;;19.53;77.05;98613.84;4317400;33;34136;-88
2023/08/04 01:00:30;;;;;;;7.10;3.53;;;;;;;19.23;78.25;98606.03;4331126;33;33772;-85
2023/08/04 01:02:58;;;;;;;7.43;3.60;;;;;;;18.96;80.41;98599.84;4331836;33;33389;-85
2023/08/04 01:05:35;;;;;;;7.80;3.15;;;;;;;19.32;78.96;98582.09;4330265;33;34226;-87
2023/08/04 01:08:31;;;;;;;8.57;3.47;;;;;;;19.37;78.94;98595.94;4330734;33;34224;-86
2023/08/04 01:11:10;;;;;;;9.13;3.85;;;;;;;19.16;80.76;98654.41;4329795;33;34058;-88
2023/08/04 01:13:40;;;;;;;7.97;3.78;;;;;;;19.82;77.67;98632.22;4309703;33;33305;-87
2023/08/04 01:16:09;;;;;;;9.48;4.10;;;;;;;19.76;78.11;98579.78;4316814;33;33935;-89
2023/08/04 01:18:37;;;;;;;9.73;4.37;;;;;;;19.18;82.70;98597.44;4310661;33;33973;-89
2023/08/04 01:21:05;;;;;;;9.13;5.07;;;;;;;19.87;78.97;98593.44;4315840;33;33659;-88
2023/08/04 01:23:33;;;;;;;8.80;4.32;;;;;;;19.88;79.15;98604.81;4315275;33;34297;-88
2023/08/04 01:26:02;;;;;;;9.98;4.45;;;;;;;19.50;81.72;98634.97;4315736;33;33950;-89
2023/08/04 01:28:32;;;;;;;7.78;4.40;;;;;;;19.58;82.17;98639.06;4314259;33;35196;-89
2023/08/04 01:31:00;;;;;;;9.70;4.85;;;;;;;20.18;79.33;98624.81;4315495;33;34909;-91
2023/08/04 01:33:29;;;;;;;12.45;4.72;;;;;;;20.42;78.20;98640.69;4303437;33;35936;-89
2023/08/04 01:35:56;;;;;;;10.80;4.87;;;;;;;20.59;77.77;98646.22;4306530;33;33397;-89
2023/08/04 01:38:27;;;;;;;8.77;3.83;;;;;;;20.63;77.91;98626.75;4311028;33;32490;-88
2023/08/04 01:40:54;;;;;;;7.57;3.58;;;;;;;20.92;76.31;98611.66;4318743;33;34603;-88
2023/08/04 01:43:23;;;;;;;7.97;3.92;;;;;;;20.78;76.34;98611.31;4303632;33;33032;-87
2023/08/04 01:45:50;;;;;;;8.93;3.80;;;;;;;20.71;76.58;98601.91;4321953;33;34080;-85
2023/08/04 01:48:18;;;;;;;6.55;3.75;;;;;;;20.40;78.49;98619.66;4328971;33;34196;-86
2023/08/04 01:50:45;;;;;;;6.68;3.45;;;;;;;20.53;77.92;98621.87;4329949;33;33580;-88
2023/08/04 01:53:13;;;;;;;8.40;4.45;;;;;;;20.44;78.35;98617.78;4330501;33;33550;-90
2023/08/04 01:55:40;;;;;;;7.97;3.72;;;;;;;20.41;77.97;98623.16;4330058;33;34745;-87
2023/08/04 01:58:08;;;;;;;8.82;4.22;;;;;;;19.78;81.30;98645.53;4329889;33;33306;-87
2023/08/04 02:00:36;;;;;;;6.85;3.75;;;;;;;20.09;79.36;98645.34;4330519;33;33660;-88
2023/08/04 02:03:03;;;;;;;7.90;3.97;;;;;;;20.67;77.11;98632.78;4330144;33;34334;-87
2023/08/04 02:05:32;;;;;;;6.62;3.58;;;;;;;20.76;76.99;98636.84;4339272;33;33946;-87
2023/08/04 02:07:59;;;;;;;5.65;2.92;;;;;;;20.84;76.89;98613.72;4327516;33;33758;-86
2023/08/04 02:10:28;;;;;;;10.05;3.20;;;;;;;20.67;76.33;98590.63;4329984;33;33845;-88
2023/08/04 02:12:55;;;;;;;7.57;3.25;;;;;;;20.39;77.92;98594.25;4327903;33;33336;-90
2023/08/04 02:15:23;;;;;;;5.40;3.15;;;;;;;20.44;77.56;98587.97;4315507;33;34413;-85
2023/08/04 02:17:50;;;;;;;6.93;3.58;;;;;;;20.47;77.90;98608.91;4302191;33;33971;-86
2023/08/04 02:20:18;;;;;;;6.60;4.28;;;;;;;20.22;79.13;98601.88;4326678;33;34277;-86
2023/08/04 02:22:46;;;;;;;7.35;4.47;;;;;;;20.09;78.99;98592.72;4315466;33;34922;-84
2023/08/04 02:25:13;;;;;;;6.37;4.50;;;;;;;20.61;76.35;98594.38;4325602;33;33933;-91
2023/08/04 02:27:42;;;;;;;7.37;5.07;;;;;;;20.41;77.48;98591.56;4329941;33;34121;-87
2023/08/04 02:30:10;;;;;;;6.95;4.82;;;;;;;20.02;78.96;98607.00;4329320;33;34163;-85
2023/08/04 02:32:38;;;;;;;8.57;5.10;;;;;;;20.36;77.57;98604.03;4329797;33;32807;-85
2023/08/04 02:35:06;;;;;;;7.62;4.75;;;;;;;20.13;78.84;98604.84;4336803;33;33335;-88
2023/08/04 02:37:33;;;;;;;9.55;4.70;;;;;;;19.94;79.44;98604.63;4332703;33;34651;-88
2023/08/04 02:40:01;;;;;;;7.45;4.07;;;;;;;19.83;79.34;98602.34;4329869;33;33924;-86
2023/08/04 02:42:29;;;;;;;6.82;4.22;;;;;;;19.75;79.54;98585.97;4317369;33;33569;-85
2023/08/04 02:44:56;;;;;;;6.60;3.67;;;;;;;19.74;79.78;98576.37;4317322;33;34259;-90
2023/08/04 02:47:24;;;;;;;5.65;3.75;;;;;;;20.01;78.08;98564.03;4316900;33;34057;-86
2023/08/04 02:49:51;;;;;;;7.78;3.85;;;;;;;20.08;77.54;98583.97;4323798;33;33593;-87
2023/08/04 02:52:19;;;;;;;6.68;3.12;;;;;;;19.71;78.65;98613.28;4317812;33;34285;-91
2023/08/04 02:54:47;;;;;;;8.60;4.00;;;;;;;19.38;80.29;98642.34;4321542;33;33946;-89
2023/08/04 02:57:14;;;;;;;6.45;3.87;;;;;;;19.49;80.07;98676.19;4331655;33;35074;-87
2023/08/04 02:59:42;;;;;;;7.45;3.83;;;;;;;19.32;79.99;98688.97;4331291;33;33739;-86
2023/08/04 03:02:10;;;;;;;7.47;3.62;;;;;;;19.39;80.19;98685.25;4329133;33;34388;-89
2023/08/04 03:04:38;;;;;;;5.10;2.60;;;;;;;19.29;80.90;98671.56;4326879;33;34710;-88
2023/08/04 03:07:06;;;;;;;5.32;3.20;;;;;;;18.63;83.72;98675.19;4331891;33;34228;-89
2023/08/04 03:09:33;;;;;;;7.97;3.53;;;;;;;18.54;84.61;98662.31;4331026;33;33933;-86
2023/08/04 03:12:01;;;;;;;6.20;2.75;;;;;;;18.98;82.04;98637.47;4321228;33;33580;-87
2023/08/04 03:14:28;;;;;;;4.68;2.33;;;;;;;19.27;80.77;98633.94;4331609;33;33978;-87
2023/08/04 03:16:57;;;;;;;5.18;2.30;;;;;;;19.36;80.18;98631.03;4322577;33;34107;-86
2023/08/04 03:19:24;;;;;;;4.85;2.40;;;;;;;19.53;79.45;98635.75;4324420;33;33146;-87
2023/08/04 03:21:52;;;;;;;5.10;2.37;;;;;;;19.26;80.39;98632.22;4330946;33;33059;-85
2023/08/04 03:24:19;;;;;;;7.07;2.87;;;;;;;19.60;78.44;98623.28;4331602;33;33736;-86
2023/08/04 03:26:47;;;;;;;6.43;2.75;;;;;;;19.80;77.57;98626.12;4331708;33;33906;-86
2023/08/04 03:29:15;;;;;;;4.75;2.55;;;;;;;19.42;79.10;98619.44;4331529;33;34834;-86
2023/08/04 03:31:43;;;;;;;5.18;2.95;;;;;;;19.74;77.70;98613.19;4318816;33;33199;-86
2023/08/04 03:34:11;;;;;;;3.97;2.20;;;;;;;19.60;78.08;98618.00;4321023;33;34885;-86
2023/08/04 03:36:39;;;;;;;5.82;2.58;;;;;;;19.45;79.36;98620.22;4330840;33;34993;-87
2023/08/04 03:39:07;;;;;;;5.47;2.00;;;;;;;19.48;78.98;98626.31;4331677;33;34580;-86
2023/08/04 03:41:35;;;;;;;5.15;2.50;;;;;;;18.93;82.36;98632.31;4323749;33;33395;-86
2023/08/04 03:44:02;;;;;;;3.75;1.95;;;;;;;18.58;85.28;98645.59;4331600;33;34163;-86
2023/08/04 03:46:32;;;;;;;5.45;2.33;;;;;;;18.87;84.02;98650.91;4330223;33;34929;-86
2023/08/04 03:48:59;;;;;;;5.87;2.47;;;;;;;18.59;85.81;98661.28;4325892;33;33372;-87
2023/08/04 03:51:27;;;;;;;6.10;3.33;;;;;;;18.62;85.55;98671.69;4333965;33;32909;-86
2023/08/04 03:53:54;;;;;;;5.72;3.33;;;;;;;18.44;87.33;98687.94;4318213;33;34879;-85
2023/08/04 03:56:22;;;;;;;4.43;3.08;;;;;;;18.98;83.77;98694.38;4332007;33;34110;-86
2023/08/04 03:58:49;;;;;;;6.40;3.20;;;;;;;18.73;85.32;98712.59;4331159;33;34906;-86
2023/08/04 04:01:18;;;;;;;6.18;3.58;;;;;;;18.71;84.69;98703.00;4330774;33;33742;-86
2023/08/04 04:03:46;;;;;;;7.25;3.85;;;;;;;18.45;85.96;98684.44;4331050;33;33751;-86
2023/08/04 04:06:16;;;;;;;7.30;3.97;;;;;;;18.81;84.33;98698.34;4331480;33;34186;-86
2023/08/04 04:08:45;;;;;;;6.50;4.45;;;;;;;18.58;84.61;98708.59;4332298;33;34802;-86
2023/08/04 04:11:13;;;;;;;8.07;4.93;;;;;;;18.43;86.91;98718.59;4324504;33;32841;-86
2023/08/04 04:13:40;;;;;;;7.10;4.50;;;;;;;18.62;85.93;98739.09;4327546;33;33814;-89
2023/08/04 04:16:08;;;;;;;8.52;5.03;;;;;;;18.89;83.78;98741.00;4331085;33;34308;-84
2023/08/04 04:18:35;;;;;;;9.25;5.40;;;;;;;18.33;87.73;98747.72;4331210;33;34061;-87
2023/08/04 04:21:03;;;;;;;6.80;4.70;;;;;;;18.29;87.68;98741.69;4329824;33;33308;-88
2023/08/04 04:23:30;;;;;;;7.80;4.97;;;;;;;18.29;86.79;98698.84;4327014;33;34858;-85
2023/08/04 04:25:58;;;;;;;9.82;4.68;;;;;;;18.22;87.95;98682.41;4331281;33;34160;-86
2023/08/04 04:28:25;;;;;;;8.00;4.03;;;;;;;18.35;86.65;98683.81;4328453;33;34245;-85
2023/08/04 04:30:53;;;;;;;8.48;4.30;;;;;;;19.03;82.86;98658.34;4330061;33;32608;-85
2023/08/04 04:33:21;;;;;;;7.47;3.55;;;;;;;19.09;82.27;98663.38;4328692;33;34938;-84
2023/08/04 04:35:50;;;;;;;9.82;3.83;;;;;;;18.85;83.46;98657.94;4329441;33;33913;-86
2023/08/04 04:38:17;;;;;;;6.15;4.05;;;;;;;18.96;83.38;98655.03;4332032;33;33091;-85
2023/08/04 04:40:54;;;;;;;6.68;4.10;;;;;;;19.13;82.77;98663.28;4336881;33;32776;-85
2023/08/04 04:43:22;;;;;;;6.03;3.83;;;;;;;19.26;82.22;98653.25;4323881;33;33615;-90
2023/08/04 04:45:50;;;;;;;6.37;2.78;;;;;;;19.16;82.91;98652.66;4316431;33;33665;-85
2023/08/04 04:48:19;;;;;;;7.03;4.00;;;;;;;19.22;82.65;98648.12;4312146;33;33798;-85
2023/08/04 04:50:46;;;;;;;5.55;3.08;;;;;;;19.19;84.00;98644.69;4307029;33;33592;-85
2023/08/04 04:53:14;;;;;;;6.35;3.17;;;;;;;19.26;83.34;98634.84;4303958;33;34866;-85
2023/08/04 04:55:42;;;;;;;9.07;3.30;;;;;;;19.48;82.59;98628.94;4317778;33;34984;-84
2023/08/04 04:58:09;;;;;;;6.03;3.25;;;;;;;20.01;78.97;98627.19;4329581;33;33623;-84
2023/08/04 05:00:37;;;;;;;5.05;2.80;;;;;;;19.97;79.96;98619.47;4328722;33;31951;-89
2023/08/04 05:03:06;;;;;;;6.70;3.28;;;;;;;19.79;81.23;98620.94;4316315;33;33964;-84
2023/08/04 05:05:35;;;;;;;5.37;3.12;;;;;;;19.24;85.12;98618.25;4329847;33;36442;-84
2023/08/04 05:08:03;;;;;;;5.30;2.80;;;;;;;19.50;83.37;98616.56;4329824;33;33691;-85
2023/08/04 05:10:30;;;;;;;5.28;2.95;;;;;;;19.60;83.34;98623.28;4316589;33;34066;-85
2023/08/04 05:12:58;;;;;;;5.28;2.95;;;;;;;19.87;81.98;98624.16;4317179;33;34875;-86
2023/08/04 05:15:25;;;;;;;5.37;3.03;;;;;;;19.64;83.01;98612.63;4316643;33;33901;-84
2023/08/04 05:17:53;;;;;;;4.87;2.87;;;;;;;19.57;83.89;98621.59;4328556;33;34732;-83
2023/08/04 05:20:20;;;;;;;4.62;2.60;;;;;;;20.05;80.78;98622.69;4318224;33;33581;-85
2023/08/04 05:22:49;;;;;;;5.35;2.83;;;;;;;20.13;79.85;98618.00;4303589;33;33691;-85
2023/08/04 05:25:17;;;;;;;4.87;2.53;;;;;;;19.98;80.44;98623.81;4319570;33;34228;-85
2023/08/04 05:27:49;;;;;;;7.12;3.70;;;;;;;19.91;81.07;98621.37;4333393;33;33526;-84
2023/08/04 05:30:16;;;;;;;7.62;3.15;;;;;;;20.03;81.15;98624.50;4327293;33;34297;-85
2023/08/04 05:32:44;;;;;;;7.43;3.20;;;;;;;19.98;81.06;98623.81;4328232;33;33880;-86
2023/08/04 05:35:12;;;;;;;4.80;3.00;;;;;;;19.99;81.38;98615.84;4316590;33;34807;-84
2023/08/04 05:37:39;;;;;;;5.95;3.08;;;;;;;20.08;80.53;98620.81;4317567;33;34377;-82
2023/08/04 05:40:07;;;;;;;7.78;3.42;;;;;;;20.22;79.79;98609.78;4330539;33;34532;-84
2023/08/04 05:42:35;;;;;;;6.05;3.20;;;;;;;20.33;79.62;98606.78;4320017;33;34654;-84
2023/08/04 05:45:03;;;;;;;5.50;3.28;;;;;;;20.31;80.99;98609.47;4316065;33;33909;-85
2023/08/04 05:47:30;;;;;;;6.18;3.00;;;;;;;20.75;78.95;98601.72;4324971;33;33705;-84
2023/08/04 05:49:58;;;;;;;5.68;2.92;;;;;;;20.97;78.07;98601.78;4330796;33;33492;-85
2023/08/04 05:52:25;;;;;;;5.60;2.87;;;;;;;21.13;77.83;98605.53;4330160;33;34722;-83
2023/08/04 05:54:54;;;;;;;6.03;2.92;;;;;;;21.53;76.33;98613.69;4330543;33;34070;-86
2023/08/04 05:57:21;;;;;;;5.70;2.53;;;;;;;21.80;74.30;98606.41;4332037;33;34014;-85
2023/08/04 05:59:49;;;;;;;7.07;2.67;;;;;;;21.79;74.29;98604.72;4330550;33;33482;-85
2023/08/04 06:02:17;;;;;;;11.00;3.37;;;;;;;22.03;74.25;98608.09;4329690;33;33709;-86
2023/08/04 06:04:46;;;;;;;7.07;2.67;;;;;;;22.07;73.01;98599.97;4329200;33;34915;-85
2023/08/04 06:07:13;;;;;;;5.28;2.60;;;;;;;22.09;74.62;98598.13;4328624;33;34241;-84
2023/08/04 06:09:42;;;;;;;6.75;2.97;;;;;;;22.46;71.73;98595.66;4321895;33;33823;-83
2023/08/04 06:12:10;;;;;;;4.93;2.53;;;;;;;22.70;70.76;98589.28;4329105;33;34554;-86
2023/08/04 06:14:37;;;;;;;5.00;2.80;;;;;;;22.97;70.92;98600.41;4330409;33;35018;-86
2023/08/04 06:17:05;;;;;;;5.43;2.50;;;;;;;23.19;70.16;98604.69;4333033;33;33434;-86
2023/08/04 06:19:33;;;;;;;6.30;2.40;;;;;;;22.96;69.68;98606.63;4330369;33;33574;-86
2023/08/04 06:22:00;;;;;;;5.37;2.40;;;;;;;23.28;67.90;98613.03;4329235;33;33894;-84
2023/08/04 06:24:28;;;;;;;5.85;2.70;;;;;;;23.75;67.00;98614.31;4332734;33;35108;-86
2023/08/04 06:26:55;;;;;;;4.93;2.45;;;;;;;23.45;66.39;98608.69;4330137;33;34138;-86
2023/08/04 06:29:23;;;;;;;4.47;2.10;;;;;;;24.00;65.56;98611.31;4325001;33;33723;-87
2023/08/04 06:31:50;;;;;;;5.10;2.58;;;;;;;24.07;65.13;98612.72;4327162;33;33720;-83
2023/08/04 06:34:20;;;;;;;5.28;2.05;;;;;;;24.48;64.70;98617.69;4320007;33;33998;-87
2023/08/04 06:36:48;;;;;;;5.97;2.42;;;;;;;24.49;64.18;98608.78;4331790;33;33451;-88
2023/08/04 06:39:16;;;;;;;4.50;2.25;;;;;;;24.22;65.57;98611.06;4333543;33;33345;-86
2023/08/04 06:41:44;;;;;;;5.00;2.10;;;;;;;24.47;63.84;98613.31;4338359;33;34475;-86
2023/08/04 06:44:13;;;;;;;4.40;1.90;;;;;;;24.54;64.09;98614.69;4332745;33;34242;-91
2023/08/04 06:46:41;;;;;;;5.05;1.92;;;;;;;24.56;62.13;98620.78;4332027;33;34448;-87
2023/08/04 06:49:08;;;;;;;4.43;2.00;;;;;;;24.80;59.50;98633.66;4332113;33;33457;-87
2023/08/04 06:51:36;;;;;;;5.10;1.85;;;;;;;24.83;59.26;98638.81;4338555;33;33459;-87
2023/08/04 06:54:03;;;;;;;3.80;1.90;;;;;;;24.93;60.24;98640.88;4341418;33;33867;-87
2023/08/04 06:56:31;;;;;;;3.80;2.10;;;;;;;24.52;59.61;98643.94;4327949;33;33912;-87
2023/08/04 06:58:59;;;;;;;4.45;2.28;;;;;;;24.08;64.41;98646.19;4333405;33;33309;-90
2023/08/04 07:01:26;;;;;;;5.35;2.80;;;;;;;24.32;62.94;98648.50;4344867;33;33653;-89
2023/08/04 07:03:54;;;;;;;5.25;2.47;;;;;;;24.09;65.88;98654.97;4326076;33;33868;-91
2023/08/04 07:06:21;;;;;;;7.25;2.08;;;;;;;24.79;65.03;98658.47;4312593;33;34258;-90
2023/08/04 07:08:49;;;;;;;7.10;2.47;;;;;;;24.76;63.93;98656.81;4333415;33;31443;-90
2023/08/04 07:11:17;;;;;;;4.70;2.30;;;;;;;24.06;63.60;98669.25;4320149;33;33920;-94
2023/08/04 07:13:45;;;;;;;6.28;2.28;;;;;;;24.13;64.45;98672.44;4326070;33;34408;-89
2023/08/04 07:16:12;;;;;;;5.15;2.03;;;;;;;24.40;62.47;98679.03;4319628;33;33782;-88
2023/08/04 07:18:40;;;;;;;5.75;2.35;;;;;;;24.47;63.97;98674.25;4321081;33;33555;-94
2023/08/04 07:21:13;;;;;;;4.07;2.08;;;;;;;24.14;66.09;98667.06;4330427;33;34730;-91
2023/08/04 07:23:41;;;;;;;5.97;2.22;;;;;;;23.73;64.68;98664.69;4332113;33;33649;-95
2023/08/04 07:26:09;;;;;;;4.55;2.22;;;;;;;23.26;67.88;98670.44;4332137;33;33896;-94
2023/08/04 07:28:38;;;;;;;4.90;2.45;;;;;;;23.14;68.83;98671.00;4307224;33;33336;-94
2023/08/04 07:31:07;;;;;;;7.40;2.50;;;;;;;23.14;69.68;98663.06;4303650;33;33954;-89
2023/08/04 07:33:35;;;;;;;6.45;2.78;;;;;;;22.99;69.33;98674.34;4326711;33;33649;-92
2023/08/04 07:36:03;;;;;;;4.70;2.10;;;;;;;23.07;68.96;98685.44;4309235;33;34272;-89
2023/08/04 07:38:31;;;;;;;5.32;2.35;;;;;;;22.77;69.05;98692.94;4313289;33;33342;-87
2023/08/04 07:40:59;;;;;;;6.68;2.47;;;;;;;22.91;69.44;98695.84;4324026;33;33646;-89
2023/08/04 07:43:26;;;;;;;5.43;2.15;;;;;;;23.11;68.59;98700.25;4333556;33;33814;-93
2023/08/04 07:45:54;;;;;;;4.12;2.20;;;;;;;23.31;69.88;98691.38;4322485;33;33395;-93
2023/08/04 07:48:22;;;;;;;4.00;2.10;;;;;;;23.78;67.43;98697.06;4333633;33;34377;-88
2023/08/04 07:50:51;;;;;;;4.90;2.50;;;;;;;23.97;67.86;98696.19;4326890;33;34354;-91
2023/08/04 07:53:19;;;;;;;5.47;2.45;;;;;;;24.03;67.07;98690.59;4316668;33;34348;-86
2023/08/04 07:55:57;;;;;;;4.25;2.15;;;;;;;24.24;64.21;98692.19;4316875;33;33805;-86
2023/08/04 07:58:25;;;;;;;5.18;2.45;;;;;;;23.83;65.67;98683.63;4317092;33;33471;-87
2023/08/04 08:00:52;;;;;;;5.05;2.72;;;;;;;24.22;64.19;98678.12;4317728;33;34663;-90
2023/08/04 08:03:20;;;;;;;3.92;2.03;;;;;;;24.51;65.79;98676.69;4316059;33;33481;-92
2023/08/04 08:05:48;;;;;;;4.68;2.20;;;;;;;24.39;62.19;98677.28;4328335;33;34845;-89
2023/08/04 08:08:17;;;;;;;6.15;2.00;;;;;;;24.21;62.05;98676.44;4328651;33;32909;-88
2023/08/04 08:10:45;;;;;;;4.32;2.12;;;;;;;24.43;63.45;98680.66;4332404;33;33649;-94
2023/08/04 08:13:12;;;;;;;3.65;1.70;;;;;;;24.62;58.58;98668.16;4320137;33;34033;-93
2023/08/04 08:15:41;;;;;;;3.80;1.60;;;;;;;24.84;60.34;98673.19;4344434;33;33584;-87
2023/08/04 08:18:09;;;;;;;4.15;1.92;;;;;;;24.74;57.32;98675.47;4326849;33;34307;-92
2023/08/04 08:20:41;;;;;;;3.95;1.77;;;;;;;24.72;58.52;98669.38;4331047;33;34388;-91
2023/08/04 08:23:09;;;;;;;4.93;1.90;;;;;;;24.63;57.68;98671.69;4329983;33;34021;-90
2023/08/04 08:25:37;;;;;;;5.12;1.90;;;;;;;24.62;59.81;98651.41;4315471;33;33986;-93
2023/08/04 08:28:07;;;;;;;5.22;2.25;;;;;;;24.48;60.21;98654.78;4317774;33;33918;-89
2023/08/04 08:30:35;;;;;;;5.35;2.40;;;;;;;25.09;59.69;98646.19;4337052;33;33966;-89
2023/08/04 08:33:02;;;;;;;3.92;2.37;;;;;;;24.93;60.81;98638.22;4319535;33;33804;-94
2023/08/04 08:35:30;;;;;;;4.18;2.20;;;;;;;24.96;59.87;98639.84;4345069;33;33810;-90
2023/08/04 08:38:00;;;;;;;5.07;2.30;;;;;;;25.21;59.59;98642.03;4343193;33;33797;-91
2023/08/04 08:40:27;;;;;;;5.22;2.42;;;;;;;25.45;60.56;98653.09;4343828;33;34555;-90
2023/08/04 08:42:57;;;;;;;6.20;2.80;;;;;;;25.19;58.92;98651.87;4344278;33;34822;-90
2023/08/04 08:45:29;;;;;;;4.32;2.12;;;;;;;25.82;59.37;98651.03;4331020;33;33708;-90
2023/08/04 08:47:57;;;;;;;5.25;1.98;;;;;;;25.71;57.92;98665.72;4329673;33;33898;-91
2023/08/04 08:50:28;;;;;;;5.32;2.10;;;;;;;25.93;57.86;98675.16;4332627;33;33646;-90
2023/08/04 08:53:10;;;;;;;4.35;2.10;;;;;;;25.95;57.94;98689.22;4332432;33;34937;-89
2023/08/04 08:55:39;;;;;;;5.10;1.92;;;;;;;26.13;55.25;98680.16;4332435;33;34179;-90
2023/08/04 08:58:07;;;;;;;5.45;2.00;;;;;;;25.83;55.38;98674.81;4329680;33;33505;-91
2023/08/04 09:00:35;;;;;;;4.05;2.10;;;;;;;25.64;56.56;98680.28;4305357;33;33735;-90
2023/08/04 09:03:04;;;;;;;7.45;2.80;;;;;;;25.79;56.99;98677.75;4317762;33;33291;-90
2023/08/04 09:05:32;;;;;;;4.03;2.25;;;;;;;25.96;55.05;98669.69;4317926;33;34194;-90
2023/08/04 09:08:00;;;;;;;4.28;2.33;;;;;;;25.66;56.94;98677.56;4317768;33;34891;-87
2023/08/04 09:10:28;;;;;;;4.75;2.45;;;;;;;25.78;55.85;98678.69;4331180;33;34281;-90
2023/08/04 09:12:58;;;;;;;4.78;2.40;;;;;;;26.01;57.37;98667.59;4331317;33;34941;-90
2023/08/04 09:15:45;;;;;;;4.68;2.10;;;;;;;26.36;56.68;98668.16;4318389;33;33467;-89
2023/08/04 09:18:25;;;;;;;4.37;2.47;;;;;;;26.15;56.75;98659.69;4332512;33;33355;-90
2023/08/04 09:21:00;;;;;;;5.03;1.83;;;;;;;26.17;54.93;98664.91;4345729;33;33944;-88
2023/08/04 09:23:28;;;;;;;6.43;2.30;;;;;;;26.07;55.60;98661.09;4346050;33;35215;-92
2023/08/04 09:25:56;;;;;;;6.60;2.28;;;;;;;26.38;56.01;98658.31;4325124;33;33135;-88
2023/08/04 09:28:25;;;;;;;5.55;2.30;;;;;;;26.07;57.86;98664.59;4311203;33;33278;-92
2023/08/04 09:31:00;;;;;;;6.90;2.62;;;;;;;25.95;58.65;98668.84;4331064;33;34790;-90
2023/08/04 09:33:28;;;;;;;5.68;2.70;;;;;;;26.11;57.51;98662.63;4330902;33;35003;-91
2023/08/04 09:36:09;;;;;;;6.72;2.30;;;;;;;26.27;58.12;98663.41;4330664;33;33761;-89
2023/08/04 09:38:40;;;;;;;6.65;2.75;;;;;;;25.43;58.35;98657.63;4324899;33;33042;-91
2023/08/04 09:41:13;;;;;;;6.03;2.40;;;;;;;25.44;59.20;98651.37;4321363;33;34076;-88
2023/08/04 09:43:47;;;;;;;6.10;2.55;;;;;;;25.69;59.76;98648.19;4289198;33;33756;-89
2023/08/04 09:46:19;;;;;;;5.93;2.33;;;;;;;26.33;57.40;98640.91;4315310;33;34171;-90
2023/08/04 09:48:47;;;;;;;7.07;2.30;;;;;;;25.73;58.10;98632.00;4302958;33;34164;-90
2023/08/04 09:51:19;;;;;;;4.90;2.72;;;;;;;26.29;57.93;98628.78;4316489;33;33989;-90
2023/08/04 09:53:48;;;;;;;8.48;2.55;;;;;;;26.14;57.94;98626.09;4303461;33;33975;-89
2023/08/04 09:56:18;;;;;;;6.55;2.75;;;;;;;25.96;57.85;98637.81;4305992;33;33840;-90
2023/08/04 09:58:47;;;;;;;6.57;2.40;;;;;;;26.23;57.25;98635.31;4320646;33;33405;-92
2023/08/04 10:01:16;;;;;;;5.80;2.35;;;;;;;26.55;57.76;98629.87;4317885;33;33650;-90
2023/08/04 10:03:50;;;;;;;5.03;2.35;;;;;;;26.70;56.94;98628.94;4317347;33;33716;-91
2023/08/04 10:06:18;;;;;;;6.50;2.65;;;;;;;26.72;55.63;98634.19;4318081;33;33714;-91
2023/08/04 10:08:48;;;;;;;5.47;2.30;;;;;;;26.55;55.02;98629.87;4331335;33;33512;-89
2023/08/04 10:11:15;;;;;;;8.05;2.47;;;;;;;26.72;55.49;98634.19;4318274;33;33539;-90
2023/08/04 10:13:44;;;;;;;4.85;2.03;;;;;;;27.22;53.72;98627.53;4318003;33;34155;-89
2023/08/04 10:16:13;;;;;;;6.68;2.50;;;;;;;27.34;55.13;98640.88;4331421;33;33705;-90
2023/08/04 10:18:53;;;;;;;5.97;2.30;;;;;;;27.16;54.65;98634.06;4317786;33;33222;-89
2023/08/04 10:21:41;;;;;;;5.78;2.22;;;;;;;26.92;54.72;98634.63;4317023;33;33753;-92
2023/08/04 10:24:10;;;;;;;6.10;2.55;;;;;;;27.01;53.77;98635.88;4315557;33;34237;-89
2023/08/04 10:26:48;;;;;;;4.85;2.37;;;;;;;26.96;56.60;98629.13;4329466;33;33446;-88
2023/08/04 10:29:16;;;;;;;6.47;2.42;;;;;;;26.64;56.61;98632.84;4345431;33;34081;-89
2023/08/04 10:31:45;;;;;;;5.60;2.28;;;;;;;26.84;55.03;98628.94;4345127;33;33804;-89
2023/08/04 10:34:35;;;;;;;4.50;2.55;;;;;;;27.15;57.85;98638.53;4331443;33;34782;-89
2023/08/04 10:37:09;;;;;;;6.05;2.20;;;;;;;27.32;56.31;98640.12;4331855;33;32144;-88
2023/08/04 10:39:40;;;;;;;4.05;2.30;;;;;;;27.50;54.54;98630.09;4333281;33;33839;-90
2023/08/04 10:42:15;;;;;;;4.50;2.30;;;;;;;27.69;53.40;98631.56;4330562;33;33962;-85
2023/08/04 10:44:55;;;;;;;;;;;;;;;27.40;53.46;98634.31;4317310;33;35206;-88
2023/08/04 10:47:52;;;;;;;5.10;2.53;;;;;;;27.58;51.53;98635.78;4330502;33;34203;-87
2023/08/04 10:50:37;;;;;;;5.00;2.50;;;;;;;27.98;50.27;98641.16;4330350;33;33365;-90
2023/08/04 10:53:05;;;;;;;7.28;2.35;;;;;;;27.99;51.61;98636.69;4330443;33;34060;-92
2023/08/04 10:55:34;;;;;;;6.60;2.50;;;;;;;28.05;54.57;98645.13;4316926;33;34147;-87
2023/08/04 10:58:13;;;;;;;5.28;2.00;;;;;;;28.13;49.43;98637.47;4316155;33;32220;-85
2023/08/04 11:00:44;;;;;;;4.15;2.03;;;;;;;28.31;49.22;98637.19;4330107;33;33167;-90
2023/08/04 11:03:36;;;;;;;5.40;1.85;;;;;;;28.31;52.73;98632.72;4333134;33;34800;-91
2023/08/04 11:06:04;;;;;;;4.18;2.40;;;;;;;28.42;50.65;98628.50;4343678;33;149910;-89
2023/08/04 11:08:32;;;;;;;5.03;2.30;;;;;;;28.47;49.49;98634.34;4347611;33;33915;-90
2023/08/04 11:10:59;;;;;;;5.30;2.50;;;;;;;28.58;49.69;98637.13;4334115;33;33338;-90
2023/08/04 11:13:27;;;;;;;6.05;3.00;;;;;;;28.58;48.33;98632.62;4347074;32;33802;-92
2023/08/04 11:15:55;;;;;;;5.32;2.30;;;;;;;28.54;48.21;98628.47;4342776;33;34042;-90
2023/08/04 11:18:29;;;;;;;4.72;2.67;;;;;;;28.38;48.39;98633.19;4332269;33;33790;-91
2023/08/04 11:21:01;;;;;;;4.78;2.50;;;;;;;28.23;50.02;98643.03;4332413;33;34196;-90
2023/08/04 11:23:30;;;;;;;4.80;2.92;;;;;;;27.80;49.37;98637.06;4318748;33;33576;-91
2023/08/04 11:25:58;;;;;;;4.70;2.50;;;;;;;28.03;49.89;98646.19;4318802;33;34243;-90
2023/08/04 11:28:26;;;;;;;4.72;2.70;;;;;;;27.81;49.49;98639.63;4318793;33;33803;-91
2023/08/04 11:31:05;;;;;;;5.70;2.90;;;;;;;27.46;51.08;98633.06;4336351;33;33086;-92
2023/08/04 11:33:33;;;;;;;5.22;3.15;;;;;;;27.46;50.75;98627.72;4347193;33;34051;-87
2023/08/04 11:36:06;;;;;;;7.07;2.97;;;;;;;27.32;54.45;98632.16;4333282;33;34239;-91
2023/08/04 11:38:34;;;;;;;4.35;2.58;;;;;;;27.47;57.66;98630.31;4347087;33;33936;-89
2023/08/04 11:41:02;;;;;;;7.45;3.28;;;;;;;27.60;57.84;98633.88;4346963;33;33261;-90
2023/08/04 11:43:30;;;;;;;5.55;2.85;;;;;;;27.50;58.37;98635.41;4347188;33;34223;-92